createdAt,value
2018-11-11T00:00:28.919Z,7.70
2018-11-11T00:02:58.531Z,7.70
2018-11-11T00:05:27.631Z,7.70
2018-11-11T00:08:05.033Z,7.70
2018-11-11T00:10:36.717Z,7.70
2018-11-11T00:13:05.815Z,7.70
2018-11-11T00:15:35.385Z,7.70
2018-11-11T00:18:06.841Z,7.70
2018-11-11T00:20:40.175Z,7.80
2018-11-11T00:23:11.448Z,7.80
2018-11-11T00:25:41.429Z,7.80
2018-11-11T00:28:11.160Z,7.70
2018-11-11T00:30:40.362Z,7.80
2018-11-11T00:33:09.497Z,7.80
2018-11-11T00:35:41.373Z,7.80
2018-11-11T00:38:10.765Z,7.80
2018-11-11T00:40:40.094Z,7.70
2018-11-11T00:43:11.723Z,7.70
2018-11-11T00:45:40.993Z,7.70
2018-11-11T00:48:11.565Z,7.60
2018-11-11T00:50:42.722Z,7.60
2018-11-11T00:53:18.774Z,7.60
2018-11-11T00:55:51.393Z,7.60
2018-11-11T00:58:20.574Z,7.60
2018-11-11T01:00:49.652Z,7.60
2018-11-11T01:03:18.822Z,7.60
2018-11-11T01:05:49.477Z,7.70
2018-11-11T01:08:26.295Z,7.80
2018-11-11T01:10:59.731Z,7.80
2018-11-11T01:13:29.237Z,7.80
2018-11-11T01:15:58.453Z,7.80
2018-11-11T01:18:29.593Z,7.80
2018-11-11T01:20:58.571Z,7.80
2018-11-11T01:23:27.583Z,7.80
2018-11-11T01:25:57.198Z,7.80
2018-11-11T01:28:26.329Z,7.90
2018-11-11T01:30:55.485Z,7.90
2018-11-11T01:33:24.633Z,7.90
2018-11-11T01:35:54.925Z,7.90
2018-11-11T01:38:24.298Z,7.80
2018-11-11T01:40:58.886Z,7.80
2018-11-11T01:43:31.292Z,7.80
2018-11-11T01:46:01.800Z,7.80
2018-11-11T01:48:33.812Z,7.80
2018-11-11T01:51:05.707Z,7.80
2018-11-11T01:53:34.739Z,7.80
2018-11-11T01:56:04.360Z,7.80
2018-11-11T01:58:35.888Z,7.80
2018-11-11T02:01:06.317Z,7.80
2018-11-11T02:03:35.624Z,7.80
2018-11-11T02:06:05.204Z,7.80
2018-11-11T02:08:34.283Z,7.70
2018-11-11T02:11:05.276Z,7.70
2018-11-11T02:13:40.304Z,7.60
2018-11-11T02:16:13.783Z,7.70
2018-11-11T02:18:43.563Z,7.60
2018-11-11T02:21:12.723Z,7.60
2018-11-11T02:23:44.741Z,7.60
2018-11-11T02:26:15.418Z,7.60
2018-11-11T02:28:45.639Z,7.60
2018-11-11T02:31:16.638Z,7.50
2018-11-11T02:33:50.012Z,7.50
2018-11-11T02:36:19.107Z,7.50
2018-11-11T02:38:49.062Z,7.50
2018-11-11T02:41:20.985Z,7.50
2018-11-11T02:43:51.309Z,7.50
2018-11-11T02:46:23.963Z,7.50
2018-11-11T02:49:00.118Z,7.50
2018-11-11T02:51:30.278Z,7.40
2018-11-11T02:54:00.510Z,7.50
2018-11-11T02:56:31.169Z,7.50
2018-11-11T02:59:00.856Z,7.50
2018-11-11T03:01:39.670Z,7.50
2018-11-11T03:04:08.784Z,7.50
2018-11-11T03:06:52.589Z,7.50
2018-11-11T03:09:21.748Z,7.50
2018-11-11T03:12:01.223Z,7.50
2018-11-11T03:14:31.566Z,7.50
2018-11-11T03:17:02.222Z,7.50
2018-11-11T03:19:33.125Z,7.50
2018-11-11T03:22:03.160Z,7.50
2018-11-11T03:24:33.214Z,7.50
2018-11-11T03:27:04.687Z,7.50
2018-11-11T03:29:40.302Z,7.50
2018-11-11T03:32:10.712Z,7.50
2018-11-11T03:34:44.179Z,7.50
2018-11-11T03:37:15.285Z,7.50
2018-11-11T03:39:49.709Z,7.50
2018-11-11T03:42:23.264Z,7.50
2018-11-11T03:44:58.485Z,7.50
2018-11-11T03:47:30.148Z,7.50
2018-11-11T03:50:08.507Z,7.50
2018-11-11T03:52:37.809Z,7.50
2018-11-11T03:55:07.113Z,7.40
2018-11-11T03:57:36.484Z,7.40
2018-11-11T04:00:06.742Z,7.40
2018-11-11T04:02:37.414Z,7.40
2018-11-11T04:05:08.330Z,7.40
2018-11-11T04:07:37.556Z,7.40
2018-11-11T04:10:13.487Z,7.40
2018-11-11T04:12:42.647Z,7.30
2018-11-11T04:15:12.998Z,7.30
2018-11-11T04:17:46.244Z,7.30
2018-11-11T04:20:16.644Z,7.30
2018-11-11T04:25:41.790Z,7.30
2018-11-11T04:28:13.565Z,7.30
2018-11-11T04:30:46.646Z,7.30
2018-11-11T04:33:15.770Z,7.30
2018-11-11T04:35:44.843Z,7.30
2018-11-11T04:38:19.079Z,7.30
2018-11-11T04:40:54.702Z,7.30
2018-11-11T04:43:30.326Z,7.30
2018-11-11T04:46:06.696Z,7.30
2018-11-11T04:48:44.186Z,7.30
2018-11-11T04:51:20.309Z,7.30
2018-11-11T04:53:51.853Z,7.30
2018-11-11T04:56:21.346Z,7.30
2018-11-11T04:58:59.773Z,7.30
2018-11-11T05:01:29.976Z,7.30
2018-11-11T05:03:59.288Z,7.30
2018-11-11T05:06:32.270Z,7.30
2018-11-11T05:09:01.363Z,7.30
2018-11-11T05:11:37.221Z,7.30
2018-11-11T05:14:06.355Z,7.20
2018-11-11T05:16:35.370Z,7.30
2018-11-11T05:19:11.109Z,7.20
2018-11-11T05:21:40.229Z,7.20
2018-11-11T05:24:20.488Z,7.20
2018-11-11T05:26:59.161Z,7.20
2018-11-11T05:29:28.754Z,7.20
2018-11-11T05:31:57.757Z,7.20
2018-11-11T05:34:26.718Z,7.20
2018-11-11T05:36:56.137Z,7.10
2018-11-11T05:39:25.509Z,7.10
2018-11-11T05:41:54.988Z,7.10
2018-11-11T05:44:29.201Z,7.10
2018-11-11T05:46:58.492Z,7.10
2018-11-11T05:49:27.653Z,7.20
2018-11-11T05:52:03.070Z,7.20
2018-11-11T05:54:35.621Z,7.20
2018-11-11T05:57:04.777Z,7.20
2018-11-11T05:59:41.115Z,7.20
2018-11-11T06:02:11.737Z,7.30
2018-11-11T06:04:48.029Z,7.30
2018-11-11T06:07:20.811Z,7.30
2018-11-11T06:09:55.429Z,7.30
2018-11-11T06:12:24.871Z,7.30
2018-11-11T06:14:54.440Z,7.40
2018-11-11T06:17:23.576Z,7.40
2018-11-11T06:19:52.859Z,7.40
2018-11-11T06:22:21.934Z,7.40
2018-11-11T06:24:51.354Z,7.40
2018-11-11T06:27:20.549Z,7.50
2018-11-11T06:29:51.452Z,7.50
2018-11-11T06:32:20.519Z,7.50
2018-11-11T06:34:49.698Z,7.50
2018-11-11T06:37:18.796Z,7.50
2018-11-11T06:39:47.917Z,7.50
2018-11-11T06:42:23.633Z,7.50
2018-11-11T06:44:52.942Z,7.60
2018-11-11T06:47:29.753Z,7.50
2018-11-11T06:50:00.969Z,7.50
2018-11-11T06:52:29.944Z,7.50
2018-11-11T06:55:01.769Z,7.50
2018-11-11T06:57:30.804Z,7.50
2018-11-11T06:59:59.975Z,7.50
2018-11-11T07:02:37.690Z,7.50
2018-11-11T07:05:08.573Z,7.60
2018-11-11T07:07:37.718Z,7.50
2018-11-11T07:10:07.076Z,7.50
2018-11-11T07:12:36.102Z,7.50
2018-11-11T07:15:06.105Z,7.50
2018-11-11T07:17:35.154Z,7.50
2018-11-11T07:20:04.793Z,7.50
2018-11-11T07:22:34.082Z,7.60
2018-11-11T07:25:11.276Z,7.50
2018-11-11T07:27:40.454Z,7.50
2018-11-11T07:30:09.443Z,7.50
2018-11-11T07:32:38.442Z,7.50
2018-11-11T07:35:08.868Z,7.60
2018-11-11T07:37:37.942Z,7.50
2018-11-11T07:40:09.460Z,7.60
2018-11-11T07:42:38.460Z,7.60
2018-11-11T07:45:07.560Z,7.60
2018-11-11T07:47:37.547Z,7.60
2018-11-11T07:50:19.871Z,7.70
2018-11-11T07:52:49.140Z,7.70
2018-11-11T07:55:18.382Z,7.80
2018-11-11T07:57:47.432Z,7.70
2018-11-11T08:00:16.494Z,7.70
2018-11-11T08:02:45.561Z,7.70
2018-11-11T08:05:15.021Z,7.70
2018-11-11T08:07:44.290Z,7.70
2018-11-11T08:10:24.623Z,7.70
2018-11-11T08:12:53.720Z,7.70
2018-11-11T08:15:22.795Z,7.70
2018-11-11T08:17:51.823Z,7.80
2018-11-11T08:20:21.515Z,7.90
2018-11-11T08:22:50.691Z,8.00
2018-11-11T08:25:20.174Z,8.00
2018-11-11T08:27:49.229Z,8.00
2018-11-11T08:30:18.387Z,8.00
2018-11-11T08:32:47.471Z,7.90
2018-11-11T08:35:16.550Z,8.00
2018-11-11T08:37:45.920Z,8.00
2018-11-11T08:40:14.967Z,8.00
2018-11-11T08:42:44.446Z,8.00
2018-11-11T08:45:14.637Z,8.00
2018-11-11T08:47:45.276Z,8.10
2018-11-11T08:50:14.994Z,8.20
2018-11-11T08:52:44.011Z,8.30
2018-11-11T08:55:13.134Z,8.30
2018-11-11T08:57:42.823Z,8.30
2018-11-11T09:00:13.228Z,8.30
2018-11-11T09:02:42.523Z,8.30
2018-11-11T09:05:11.523Z,8.30
2018-11-11T09:07:40.624Z,8.30
2018-11-11T09:10:12.139Z,8.40
2018-11-11T09:12:41.206Z,8.40
2018-11-11T09:15:13.099Z,8.40
2018-11-11T09:17:42.712Z,8.50
2018-11-11T09:20:13.253Z,8.50
2018-11-11T09:22:43.220Z,8.40
2018-11-11T09:25:12.364Z,8.40
2018-11-11T09:27:42.942Z,8.40
2018-11-11T09:30:13.507Z,8.40
2018-11-11T09:32:42.938Z,8.40
2018-11-11T09:35:12.300Z,8.50
2018-11-11T09:37:41.848Z,8.60
2018-11-11T09:40:12.151Z,8.50
2018-11-11T09:42:41.312Z,8.50
2018-11-11T09:45:15.298Z,8.50
2018-11-11T09:47:44.839Z,8.50
2018-11-11T09:50:15.987Z,8.50
2018-11-11T09:52:45.043Z,8.50
2018-11-11T09:55:14.760Z,8.60
2018-11-11T09:57:43.831Z,8.60
2018-11-11T10:00:17.332Z,8.60
2018-11-11T10:02:50.554Z,8.60
2018-11-11T10:05:23.557Z,8.60
2018-11-11T10:07:56.437Z,8.70
2018-11-11T10:10:30.940Z,8.70
2018-11-11T10:13:03.874Z,8.80
2018-11-11T10:17:43.466Z,8.80
2018-11-11T10:20:24.440Z,8.80
2018-11-11T10:24:05.359Z,8.90
2018-11-11T10:26:38.771Z,9.00
2018-11-11T10:31:17.879Z,9.00
2018-11-11T10:33:54.773Z,9.00
2018-11-11T10:36:58.020Z,9.10
2018-11-11T10:41:35.613Z,9.10
2018-11-11T10:45:13.809Z,9.00
2018-11-11T10:48:03.085Z,9.00
2018-11-11T10:50:54.540Z,9.00
2018-11-11T10:53:24.047Z,9.00
2018-11-11T10:55:53.234Z,9.00
2018-11-11T10:58:22.456Z,9.10
2018-11-11T11:00:57.590Z,9.10
2018-11-11T11:03:31.504Z,9.10
2018-11-11T11:06:01.771Z,9.10
2018-11-11T11:08:32.416Z,9.10
2018-11-11T11:11:01.655Z,9.20
2018-11-11T11:13:31.392Z,9.10
2018-11-11T11:16:03.527Z,9.20
2018-11-11T11:18:33.644Z,9.20
2018-11-11T11:21:02.913Z,9.30
2018-11-11T11:23:33.044Z,9.30
2018-11-11T11:26:02.077Z,9.30
2018-11-11T11:28:34.009Z,9.30
2018-11-11T11:31:03.509Z,9.30
2018-11-11T11:33:32.878Z,9.40
2018-11-11T11:36:02.218Z,9.30
2018-11-11T11:38:32.379Z,9.30
2018-11-11T11:41:02.833Z,9.40
2018-11-11T11:43:31.927Z,9.40
2018-11-11T11:46:01.319Z,9.40
2018-11-11T11:48:30.927Z,9.40
2018-11-11T11:51:00.511Z,9.30
2018-11-11T11:53:29.701Z,9.40
2018-11-11T11:55:59.374Z,9.40
2018-11-11T11:58:29.738Z,9.40
2018-11-11T12:00:59.922Z,9.40
2018-11-11T12:03:30.048Z,9.40
2018-11-11T12:06:00.956Z,9.30
2018-11-11T12:08:31.223Z,9.30
2018-11-11T12:11:01.930Z,9.30
2018-11-11T12:13:33.730Z,9.30
2018-11-11T12:16:04.310Z,9.30
2018-11-11T12:18:33.802Z,9.30
2018-11-11T12:21:04.945Z,9.30
2018-11-11T12:23:34.392Z,9.30
2018-11-11T12:26:04.791Z,9.40
2018-11-11T12:28:35.217Z,9.40
2018-11-11T12:31:05.566Z,9.40
2018-11-11T12:33:35.355Z,9.50
2018-11-11T12:36:06.333Z,9.60
2018-11-11T12:38:35.954Z,9.70
2018-11-11T12:41:07.972Z,9.80
2018-11-11T12:43:37.360Z,10.00
2018-11-11T12:46:10.991Z,10.10
2018-11-11T12:48:40.814Z,10.20
2018-11-11T12:51:11.870Z,10.30
2018-11-11T12:56:34.658Z,10.20
2018-11-11T12:59:06.890Z,10.20
2018-11-11T13:01:37.876Z,10.10
2018-11-11T13:04:08.477Z,10.10
2018-11-11T13:06:38.072Z,10.20
2018-11-11T13:09:14.139Z,10.30
2018-11-11T13:11:43.674Z,10.60
2018-11-11T13:14:14.556Z,10.80
2018-11-11T13:16:44.154Z,10.90
2018-11-11T13:19:13.528Z,10.90
2018-11-11T13:21:43.545Z,11.00
2018-11-11T13:24:14.638Z,11.00
2018-11-11T13:26:48.308Z,11.20
2018-11-11T13:29:17.666Z,11.10
2018-11-11T13:31:47.860Z,11.10
2018-11-11T13:34:19.377Z,11.00
2018-11-11T13:36:48.899Z,11.00
2018-11-11T13:39:20.738Z,11.00
2018-11-11T13:41:55.805Z,11.00
2018-11-11T13:44:27.542Z,11.00
2018-11-11T13:47:00.194Z,11.00
2018-11-11T13:49:30.827Z,11.00
2018-11-11T13:52:03.489Z,11.00
2018-11-11T13:54:32.681Z,11.10
2018-11-11T13:57:06.113Z,11.10
2018-11-11T13:59:37.959Z,11.10
2018-11-11T14:02:07.878Z,11.10
2018-11-11T14:04:37.267Z,11.20
2018-11-11T14:07:06.531Z,11.20
2018-11-11T14:09:37.809Z,11.20
2018-11-11T14:12:06.907Z,11.20
2018-11-11T14:14:36.329Z,11.20
2018-11-11T14:17:06.644Z,11.30
2018-11-11T14:19:39.777Z,11.30
2018-11-11T14:22:12.280Z,11.30
2018-11-11T14:24:41.421Z,11.30
2018-11-11T14:27:11.379Z,11.30
2018-11-11T14:29:41.468Z,11.30
2018-11-11T14:32:10.587Z,11.30
2018-11-11T14:34:45.298Z,11.30
2018-11-11T14:37:14.497Z,11.30
2018-11-11T14:39:51.926Z,11.30
2018-11-11T14:42:22.296Z,11.20
2018-11-11T14:44:55.381Z,11.30
2018-11-11T14:47:24.950Z,11.30
2018-11-11T14:49:59.841Z,11.20
2018-11-11T14:52:34.999Z,11.30
2018-11-11T14:55:05.912Z,11.30
2018-11-11T14:57:34.947Z,11.30
2018-11-11T15:00:04.850Z,11.30
2018-11-11T15:02:33.989Z,11.20
2018-11-11T15:05:03.423Z,11.20
2018-11-11T15:07:32.537Z,11.20
2018-11-11T15:10:01.712Z,11.10
2018-11-11T15:12:31.148Z,11.10
2018-11-11T15:15:00.273Z,11.10
2018-11-11T15:17:31.008Z,11.10
2018-11-11T15:20:00.447Z,11.10
2018-11-11T15:22:29.751Z,11.00
2018-11-11T15:25:00.205Z,11.00
2018-11-11T15:27:29.241Z,11.00
2018-11-11T15:29:58.234Z,11.00
2018-11-11T15:32:27.549Z,11.00
2018-11-11T15:34:56.860Z,10.90
2018-11-11T15:37:26.545Z,10.90
2018-11-11T15:39:55.595Z,10.80
2018-11-11T15:42:24.703Z,10.90
2018-11-11T15:44:53.825Z,10.80
2018-11-11T15:47:24.980Z,10.90
2018-11-11T15:49:54.100Z,10.80
2018-11-11T15:52:23.885Z,10.80
2018-11-11T15:54:53.412Z,10.70
2018-11-11T15:57:22.743Z,10.70
2018-11-11T15:59:52.105Z,10.70
2018-11-11T16:02:21.263Z,10.70
2018-11-11T16:04:50.327Z,10.70
2018-11-11T16:07:19.792Z,10.70
2018-11-11T16:09:48.816Z,10.70
2018-11-11T16:12:17.946Z,10.60
2018-11-11T16:14:47.226Z,10.70
2018-11-11T16:17:16.715Z,10.60
2018-11-11T16:19:45.805Z,10.60
2018-11-11T16:22:15.943Z,10.60
2018-11-11T16:24:45.374Z,10.50
2018-11-11T16:27:14.588Z,10.40
2018-11-11T16:29:44.522Z,10.40
2018-11-11T16:32:13.613Z,10.40
2018-11-11T16:34:42.845Z,10.30
2018-11-11T16:37:11.947Z,10.30
2018-11-11T16:39:41.327Z,10.30
2018-11-11T16:42:10.592Z,10.30
2018-11-11T16:44:47.044Z,10.20
2018-11-11T16:47:23.670Z,10.20
2018-11-11T16:49:52.907Z,10.30
2018-11-11T16:52:22.898Z,10.30
2018-11-11T16:54:51.972Z,10.30
2018-11-11T16:57:22.815Z,10.30
2018-11-11T16:59:55.214Z,10.20
2018-11-11T17:02:24.452Z,10.20
2018-11-11T17:04:54.843Z,10.20
2018-11-11T17:07:24.936Z,10.10
2018-11-11T17:09:54.226Z,10.10
2018-11-11T17:12:33.015Z,10.10
2018-11-11T17:15:02.149Z,10.00
2018-11-11T17:17:31.231Z,10.00
2018-11-11T17:20:00.411Z,10.00
2018-11-11T17:22:30.237Z,10.00
2018-11-11T17:24:59.242Z,10.00
2018-11-11T17:27:28.665Z,10.00
2018-11-11T17:29:58.128Z,10.00
2018-11-11T17:32:27.760Z,10.00
2018-11-11T17:34:57.591Z,10.00
2018-11-11T17:37:26.921Z,10.00
2018-11-11T17:39:56.616Z,10.00
2018-11-11T17:42:25.994Z,10.00
2018-11-11T17:44:55.167Z,10.00
2018-11-11T17:47:30.129Z,10.00
2018-11-11T17:49:59.332Z,9.90
2018-11-11T17:52:28.474Z,9.90
2018-11-11T17:54:57.833Z,9.90
2018-11-11T17:57:27.382Z,9.80
2018-11-11T17:59:56.814Z,9.80
2018-11-11T18:02:26.982Z,9.80
2018-11-11T18:04:56.109Z,9.80
2018-11-11T18:07:25.294Z,9.90
2018-11-11T18:09:54.502Z,10.00
2018-11-11T18:12:23.854Z,10.00
2018-11-11T18:14:54.423Z,10.00
2018-11-11T18:17:24.333Z,10.10
2018-11-11T18:19:53.447Z,10.20
2018-11-11T18:22:23.029Z,10.20
2018-11-11T18:24:52.651Z,10.20
2018-11-11T18:27:22.578Z,10.20
2018-11-11T18:29:53.503Z,10.20
2018-11-11T19:18:03.978Z,10.20
2018-11-11T19:20:35.296Z,9.70
2018-11-11T19:23:16.431Z,9.60
2018-11-11T19:25:48.647Z,9.60
2018-11-11T19:28:31.147Z,9.60
2018-11-11T19:31:14.924Z,9.60
2018-11-11T19:37:03.389Z,9.60
2018-11-11T19:39:55.456Z,9.60
2018-11-11T19:42:37.598Z,9.60
2018-11-11T19:45:13.731Z,9.60
2018-11-11T19:47:57.307Z,9.50
2018-11-11T19:56:29.155Z,9.60
2018-11-11T20:02:11.393Z,9.50
2018-11-11T20:04:54.551Z,9.50
2018-11-11T20:13:27.116Z,9.50
2018-11-11T20:22:15.351Z,9.50
2018-11-11T20:25:05.196Z,9.50
2018-11-11T20:27:48.365Z,9.50
2018-11-11T20:30:24.755Z,9.50
2018-11-11T20:33:01.775Z,9.50
2018-11-11T20:35:37.834Z,9.50
2018-11-11T20:38:19.133Z,9.50
2018-11-11T20:41:26.153Z,9.50
2018-11-11T20:44:20.309Z,9.50
2018-11-11T20:50:37.909Z,9.50
2018-11-11T20:53:17.893Z,9.50
2018-11-11T20:56:00.257Z,9.50
2018-11-11T20:58:31.944Z,9.50
2018-11-11T21:01:07.338Z,9.60
2018-11-11T21:03:39.901Z,9.70
2018-11-11T21:06:19.376Z,9.70
2018-11-11T21:08:50.144Z,9.80
2018-11-11T21:11:25.601Z,9.90
2018-11-11T21:13:59.438Z,10.00
2018-11-11T21:16:33.485Z,10.00
2018-11-11T21:19:04.534Z,10.10
2018-11-11T21:21:34.622Z,10.10
2018-11-11T21:24:05.243Z,10.10
2018-11-11T21:26:36.130Z,10.10
2018-11-11T21:29:07.117Z,10.00
2018-11-11T21:31:36.982Z,10.00
2018-11-11T21:34:07.080Z,10.00
2018-11-11T21:36:37.763Z,10.00
2018-11-11T21:39:14.733Z,10.00
2018-11-11T21:42:05.524Z,10.00
2018-11-11T21:44:36.691Z,10.00
2018-11-11T21:47:13.198Z,10.00
2018-11-11T21:49:43.092Z,10.10
2018-11-11T21:52:13.192Z,10.20
2018-11-11T21:54:50.694Z,10.20
2018-11-11T21:57:26.413Z,10.10
2018-11-11T21:59:57.039Z,10.20
2018-11-11T22:02:26.535Z,10.20
2018-11-11T22:04:58.889Z,10.20
2018-11-11T22:07:32.632Z,10.40
2018-11-11T22:10:04.099Z,10.40
2018-11-11T22:12:40.032Z,10.40
2018-11-11T22:15:10.896Z,10.50
2018-11-11T22:17:40.562Z,10.50
2018-11-11T22:20:10.563Z,10.40
2018-11-11T22:22:40.639Z,10.40
2018-11-11T22:25:10.384Z,10.40
2018-11-11T22:27:46.544Z,10.40
2018-11-11T22:30:24.093Z,10.50
2018-11-11T22:33:13.230Z,10.50
2018-11-11T22:36:23.712Z,10.60
2018-11-11T22:39:11.934Z,10.60
2018-11-11T22:41:43.406Z,10.70
2018-11-11T22:44:12.984Z,10.60
2018-11-11T22:46:42.853Z,10.70
2018-11-11T22:49:11.962Z,10.80
2018-11-11T22:51:41.047Z,10.80
2018-11-11T22:54:15.177Z,10.80
2018-11-11T22:57:02.299Z,10.80
2018-11-11T22:59:37.107Z,10.70
2018-11-11T23:02:07.252Z,10.70
2018-11-11T23:04:37.112Z,10.70
2018-11-11T23:07:06.945Z,10.70
2018-11-11T23:09:36.093Z,10.60
2018-11-11T23:12:14.791Z,10.60
2018-11-11T23:14:45.517Z,10.50
2018-11-11T23:17:14.708Z,10.50
2018-11-11T23:19:44.255Z,10.50
2018-11-11T23:22:15.546Z,10.50
2018-11-11T23:24:57.777Z,10.50
2018-11-11T23:27:29.663Z,10.50
2018-11-11T23:29:59.379Z,10.50
2018-11-11T23:32:28.529Z,10.60
2018-11-11T23:34:57.617Z,10.60
2018-11-11T23:37:26.654Z,10.60
2018-11-11T23:39:55.688Z,10.60
2018-11-11T23:42:24.703Z,10.60
2018-11-11T23:44:53.658Z,10.50
2018-11-11T23:47:22.811Z,10.50
2018-11-11T23:49:51.819Z,10.50
2018-11-11T23:52:20.860Z,10.40
2018-11-11T23:54:50.485Z,10.50
2018-11-11T23:57:19.591Z,10.40
2018-11-11T23:59:48.684Z,10.40
